createdAt,value
2022-12-14T09:05:57.953Z,69.32
2022-12-14T09:06:57.943Z,67.93
2022-12-14T09:07:57.931Z,66.89
2022-12-14T09:08:57.928Z,66.71
2022-12-14T09:09:57.912Z,66.92
2022-12-14T09:12:57.877Z,67.79
2022-12-14T09:13:57.868Z,67.41
2022-12-14T09:14:57.859Z,66.78
2022-12-14T09:15:57.891Z,66.16
2022-12-14T09:16:57.833Z,66.26
2022-12-14T09:17:57.818Z,66.26
2022-12-14T09:18:59.819Z,66.16
2022-12-14T09:19:57.798Z,66.05
2022-12-14T09:20:59.791Z,66.16
2022-12-14T09:21:57.807Z,66.16
2022-12-14T09:22:57.765Z,66.13
2022-12-14T09:23:59.896Z,65.81
2022-12-14T09:24:57.750Z,65.39
2022-12-14T09:25:57.735Z,65.71
2022-12-14T09:26:57.729Z,65.71
2022-12-14T09:27:57.709Z,65.63
2022-12-14T09:28:57.698Z,65.63
2022-12-14T09:29:57.693Z,65.97
2022-12-14T09:30:57.676Z,66.19
2022-12-14T09:31:57.699Z,66.60
2022-12-14T09:32:57.658Z,66.71
2022-12-14T09:33:57.640Z,66.78
2022-12-14T09:34:57.631Z,66.32
2022-12-14T09:37:57.609Z,67.79
2022-12-14T09:38:57.966Z,67.68
2022-12-14T09:39:57.585Z,67.54
2022-12-14T09:40:57.564Z,67.23
2022-12-14T09:42:00.751Z,66.99
2022-12-14T09:42:57.540Z,66.65
2022-12-14T09:43:59.532Z,66.41
2022-12-14T09:44:59.519Z,65.44
2022-12-14T09:45:57.573Z,65.05
2022-12-14T09:46:57.499Z,65.02
2022-12-14T09:47:57.495Z,65.02
2022-12-14T09:48:57.496Z,64.47
2022-12-14T09:49:57.465Z,64.36
2022-12-14T09:50:57.557Z,63.95
2022-12-14T09:51:57.446Z,63.81
2022-12-14T09:52:57.436Z,63.40
2022-12-14T09:54:02.205Z,63.19
2022-12-14T09:54:57.413Z,63.29
2022-12-14T09:55:57.398Z,63.61
2022-12-14T09:56:57.387Z,63.47
2022-12-14T09:57:57.376Z,63.44
2022-12-14T09:58:57.364Z,62.79
2022-12-14T09:59:57.357Z,61.82
2022-12-14T10:00:57.421Z,61.54
2022-12-14T10:03:06.136Z,61.75
2022-12-14T10:03:57.486Z,61.82
2022-12-14T10:04:57.295Z,61.72
2022-12-14T10:05:57.287Z,61.30
2022-12-14T10:06:57.275Z,61.33
2022-12-14T10:07:57.268Z,61.65
2022-12-14T10:08:57.252Z,61.12
2022-12-14T10:09:57.260Z,61.77
2022-12-14T10:10:57.228Z,62.09
2022-12-14T10:11:57.217Z,62.32
2022-12-14T10:12:57.208Z,62.71
2022-12-14T10:13:57.196Z,62.37
2022-12-14T10:14:57.188Z,61.77
2022-12-14T10:15:57.249Z,62.56
2022-12-14T10:16:57.248Z,63.40
2022-12-14T10:17:57.386Z,63.43
2022-12-14T10:19:00.075Z,64.39
2022-12-14T10:19:57.135Z,64.99
2022-12-14T10:20:57.123Z,65.27
2022-12-14T10:21:57.105Z,64.48
2022-12-14T10:22:57.095Z,63.62
2022-12-14T10:23:57.092Z,62.55
2022-12-14T10:24:57.084Z,61.90
2022-12-14T10:25:57.060Z,61.22
2022-12-14T10:26:57.053Z,60.05
2022-12-14T10:28:12.676Z,59.84
2022-12-14T10:29:01.192Z,59.63
2022-12-14T10:29:57.025Z,59.22
2022-12-14T10:30:57.011Z,59.53
2022-12-14T10:31:57.049Z,59.42
2022-12-14T10:32:56.982Z,59.76
2022-12-14T10:33:56.983Z,59.76
2022-12-14T10:34:56.968Z,59.87
2022-12-14T10:35:56.949Z,59.89
2022-12-14T10:36:57.124Z,60.03
2022-12-14T10:37:56.932Z,60.57
2022-12-14T10:38:56.917Z,61.12
2022-12-14T10:39:56.905Z,61.54
2022-12-14T10:40:56.893Z,61.77
2022-12-14T10:41:56.885Z,62.43
2022-12-14T10:42:56.900Z,62.87
2022-12-14T10:43:56.862Z,63.40
2022-12-14T10:45:16.613Z,64.12
2022-12-14T10:45:56.948Z,64.34
2022-12-14T10:46:56.905Z,63.99
2022-12-14T10:47:56.817Z,63.78
2022-12-14T10:48:56.804Z,63.58
2022-12-14T10:49:56.798Z,63.47
2022-12-14T10:50:56.786Z,63.26
2022-12-14T10:51:56.775Z,63.26
2022-12-14T10:52:56.761Z,63.40
2022-12-14T10:53:56.751Z,64.16
2022-12-14T10:54:56.741Z,64.55
2022-12-14T10:55:56.729Z,64.23
2022-12-14T10:56:56.806Z,64.02
2022-12-14T10:57:56.710Z,64.36
2022-12-14T10:58:56.697Z,64.99
2022-12-14T11:00:08.550Z,65.20
2022-12-14T11:00:56.734Z,65.27
2022-12-14T11:01:56.937Z,64.65
2022-12-14T11:02:56.883Z,64.23
2022-12-14T11:03:56.647Z,64.12
2022-12-14T11:04:56.636Z,64.65
2022-12-14T11:05:56.622Z,64.26
2022-12-14T11:06:56.607Z,64.58
2022-12-14T11:07:56.606Z,64.99
2022-12-14T11:08:56.589Z,64.47
2022-12-14T11:09:56.573Z,64.78
2022-12-14T11:10:56.566Z,65.17
2022-12-14T11:11:56.597Z,64.93
2022-12-14T11:12:56.538Z,63.94
2022-12-14T11:13:56.527Z,63.18
2022-12-14T11:14:56.520Z,62.53
2022-12-14T11:15:56.506Z,62.08
2022-12-14T11:16:56.718Z,61.53
2022-12-14T11:17:56.659Z,60.67
2022-12-14T11:18:56.471Z,59.92
2022-12-14T11:19:56.464Z,59.19
2022-12-14T11:20:56.470Z,59.19
2022-12-14T11:21:56.446Z,59.19
2022-12-14T11:22:56.433Z,59.50
2022-12-14T11:23:56.416Z,59.92
2022-12-14T11:24:56.407Z,59.27
2022-12-14T11:25:56.394Z,58.67
2022-12-14T11:26:56.384Z,59.42
2022-12-14T11:27:56.373Z,59.53
2022-12-14T11:28:56.361Z,59.94
2022-12-14T11:29:56.349Z,59.87
2022-12-14T11:30:56.421Z,60.76
2022-12-14T11:31:56.383Z,61.38
2022-12-14T11:32:56.317Z,61.87
2022-12-14T11:33:56.303Z,61.12
2022-12-14T11:34:56.292Z,60.46
2022-12-14T11:35:56.282Z,60.33
2022-12-14T11:36:56.272Z,59.89
2022-12-14T11:37:56.257Z,59.06
2022-12-14T11:38:56.255Z,59.14
2022-12-14T11:39:56.240Z,58.72
2022-12-14T11:40:56.224Z,58.85
2022-12-14T11:41:56.214Z,59.47
2022-12-14T11:42:56.209Z,59.39
2022-12-14T11:43:56.188Z,59.42
2022-12-14T11:44:56.178Z,60.24
2022-12-14T11:45:56.239Z,61.59
2022-12-14T11:46:56.244Z,62.34
2022-12-14T11:47:56.145Z,62.34
2022-12-14T11:48:56.133Z,62.24
2022-12-14T11:49:56.121Z,62.79
2022-12-14T11:50:56.114Z,63.37
2022-12-14T11:51:56.101Z,64.34
2022-12-14T11:52:56.094Z,64.99
2022-12-14T11:53:56.078Z,65.27
2022-12-14T11:54:56.075Z,65.03
2022-12-14T11:55:56.054Z,64.72
2022-12-14T11:56:56.043Z,64.59
2022-12-14T11:57:56.090Z,64.14
2022-12-14T11:58:56.025Z,63.70
2022-12-14T11:59:56.006Z,63.07
2022-12-14T12:00:56.003Z,62.65
2022-12-14T12:01:56.076Z,63.18
2022-12-14T12:02:56.016Z,63.07
2022-12-14T12:03:56.096Z,62.97
2022-12-14T12:04:55.960Z,63.07
2022-12-14T12:05:55.942Z,63.00
2022-12-14T12:06:58.982Z,63.65
2022-12-14T12:07:55.918Z,63.97
2022-12-14T12:08:55.904Z,64.07
2022-12-14T12:09:55.900Z,64.17
2022-12-14T12:11:01.887Z,64.48
2022-12-14T12:11:55.873Z,64.80
2022-12-14T12:12:55.866Z,64.56
2022-12-14T12:13:55.848Z,64.25
2022-12-14T12:14:55.837Z,64.35
2022-12-14T12:15:55.890Z,64.32
2022-12-14T12:16:55.813Z,63.90
2022-12-14T12:17:55.807Z,63.59
2022-12-14T12:18:55.794Z,63.73
2022-12-14T12:19:55.965Z,64.52
2022-12-14T12:20:55.985Z,65.48
2022-12-14T12:21:55.757Z,66.38
2022-12-14T12:22:56.151Z,67.24
2022-12-14T12:24:01.961Z,67.76
2022-12-14T12:25:24.195Z,67.98
2022-12-14T12:25:55.926Z,68.18
2022-12-14T12:26:55.723Z,68.84
2022-12-14T12:27:55.692Z,69.02
2022-12-14T12:28:55.680Z,68.67
2022-12-14T12:29:55.680Z,67.99
2022-12-14T12:30:55.706Z,66.91
2022-12-14T12:31:55.643Z,66.15
2022-12-14T12:32:55.630Z,65.77
2022-12-14T12:33:55.622Z,65.84
2022-12-14T12:34:55.607Z,65.63
2022-12-14T12:35:55.622Z,65.42
2022-12-14T12:37:24.778Z,65.22
2022-12-14T12:37:55.573Z,65.11
2022-12-14T12:38:55.562Z,65.46
2022-12-14T12:39:55.557Z,66.32
2022-12-14T12:40:55.549Z,66.42
2022-12-14T12:41:58.182Z,66.66
2022-12-14T12:42:55.516Z,67.11
2022-12-14T12:43:55.507Z,67.55
2022-12-14T12:44:55.494Z,68.18
2022-12-14T12:45:55.573Z,68.60
2022-12-14T12:47:22.759Z,68.60
2022-12-14T12:47:55.562Z,68.42
2022-12-14T12:48:57.448Z,69.05
2022-12-14T12:49:55.438Z,69.12
2022-12-14T12:50:55.429Z,68.92
2022-12-14T12:51:57.412Z,68.74
2022-12-14T12:53:02.689Z,69.18
2022-12-14T12:53:55.392Z,69.61
2022-12-14T12:54:55.383Z,69.61
2022-12-14T12:55:55.374Z,69.89
2022-12-14T12:56:55.363Z,69.96
2022-12-14T12:57:55.348Z,69.48
2022-12-14T12:58:55.334Z,68.06
2022-12-14T12:59:55.328Z,67.19
2022-12-14T13:00:55.315Z,65.88
2022-12-14T13:01:55.389Z,64.84
2022-12-14T13:02:55.510Z,64.37
2022-12-14T13:03:55.413Z,63.51
2022-12-14T13:04:55.269Z,62.88
2022-12-14T13:05:55.259Z,62.39
2022-12-14T13:06:55.247Z,63.12
2022-12-14T13:07:55.235Z,63.09
2022-12-14T13:08:55.222Z,62.36
2022-12-14T13:09:55.211Z,62.26
2022-12-14T13:11:24.431Z,62.02
2022-12-14T13:11:55.190Z,61.81
2022-12-14T13:12:55.180Z,61.92
2022-12-14T13:13:55.180Z,62.02
2022-12-14T13:14:55.154Z,61.92
2022-12-14T13:15:55.196Z,61.19
2022-12-14T13:16:55.133Z,61.56
2022-12-14T13:17:55.119Z,62.18
2022-12-14T13:19:08.860Z,62.53
2022-12-14T13:19:55.885Z,63.20
2022-12-14T13:20:55.086Z,64.41
2022-12-14T13:21:59.196Z,65.27
2022-12-14T13:22:55.070Z,66.04
2022-12-14T13:23:55.057Z,66.58
2022-12-14T13:24:59.304Z,66.90
2022-12-14T13:25:55.051Z,67.11
2022-12-14T13:26:58.259Z,67.66
2022-12-14T13:27:55.012Z,67.98
2022-12-14T13:28:54.999Z,68.26
2022-12-14T13:29:54.982Z,67.95
2022-12-14T13:30:55.046Z,67.95
2022-12-14T13:31:54.963Z,67.52
2022-12-14T13:32:54.965Z,67.49
2022-12-14T13:33:54.944Z,67.32
2022-12-14T13:34:54.930Z,67.32
2022-12-14T13:35:54.916Z,67.63
2022-12-14T13:36:54.906Z,67.84
2022-12-14T13:37:54.894Z,67.95
2022-12-14T13:38:54.885Z,67.73
2022-12-14T13:39:54.870Z,67.55
2022-12-14T13:40:56.856Z,68.08
2022-12-14T13:41:54.852Z,67.98
2022-12-14T13:42:54.838Z,68.08
2022-12-14T13:43:54.877Z,68.08
2022-12-14T13:44:54.813Z,67.87
2022-12-14T13:45:54.802Z,68.01
2022-12-14T13:46:54.878Z,68.42
2022-12-14T13:47:54.817Z,69.05
2022-12-14T13:48:56.768Z,68.63
2022-12-14T13:50:26.820Z,68.63
2022-12-14T13:51:01.281Z,68.63
2022-12-14T13:51:56.736Z,68.42
2022-12-14T13:52:54.723Z,68.39
2022-12-14T13:53:54.736Z,68.18
2022-12-14T13:54:54.701Z,68.08
2022-12-14T13:55:54.707Z,68.01
2022-12-14T13:56:54.677Z,68.21
2022-12-14T13:57:54.747Z,68.53
2022-12-14T13:58:54.659Z,68.53
2022-12-14T13:59:54.646Z,68.56
2022-12-14T14:00:54.675Z,68.77
2022-12-14T14:01:54.748Z,69.29
2022-12-14T14:02:56.690Z,69.40
2022-12-14T14:03:54.733Z,69.40
2022-12-14T14:04:54.598Z,69.26
2022-12-14T14:05:54.586Z,69.05
2022-12-14T14:06:54.565Z,68.74
2022-12-14T14:07:54.553Z,68.63
2022-12-14T14:08:54.543Z,68.11
2022-12-14T14:09:54.570Z,68.45
2022-12-14T14:11:20.623Z,68.77
2022-12-14T14:11:56.517Z,68.63
2022-12-14T14:12:54.499Z,68.53
2022-12-14T14:13:54.488Z,68.67
2022-12-14T14:14:54.476Z,68.63
2022-12-14T14:16:26.975Z,68.53
2022-12-14T14:16:54.521Z,68.32
2022-12-14T14:17:54.444Z,68.24
2022-12-14T14:18:54.577Z,68.14
2022-12-14T14:19:54.421Z,68.14
2022-12-14T14:20:58.918Z,68.67
2022-12-14T14:22:21.816Z,68.87
2022-12-14T14:22:54.388Z,68.90
2022-12-14T14:23:54.375Z,69.21
2022-12-14T14:24:54.365Z,69.11
2022-12-14T14:25:54.383Z,69.14
2022-12-14T15:32:53.608Z,71.08
2022-12-14T15:44:53.468Z,70.98
2022-12-14T16:34:58.552Z,73.84
2022-12-14T16:35:52.894Z,74.09
2022-12-14T16:37:31.439Z,74.26
2022-12-14T17:09:52.518Z,75.00
